METAR Data
IDs: Format: Raw Decoded Include TAF

Data at: 2111 UTC 02 Aug 2021

LIRI 021650Z 23004KT 200V260 CAVOK 28/17 Q1014